createdAt,value
2018-08-14T00:01:17.644Z,19.30
2018-08-14T00:03:51.516Z,19.20
2018-08-14T00:06:25.369Z,19.30
2018-08-14T00:08:59.262Z,19.20
2018-08-14T00:11:33.785Z,19.20
2018-08-14T00:14:08.568Z,19.10
2018-08-14T00:16:42.467Z,19.10
2018-08-14T00:19:17.045Z,19.10
2018-08-14T00:21:50.912Z,19.10
2018-08-14T00:24:24.832Z,19.10
2018-08-14T00:26:59.272Z,19.00
2018-08-14T00:29:33.059Z,19.00
2018-08-14T00:32:07.705Z,19.00
2018-08-14T00:34:41.462Z,19.00
2018-08-14T00:37:15.270Z,19.00
2018-08-14T00:39:48.976Z,19.10
2018-08-14T00:42:23.489Z,19.10
2018-08-14T00:44:57.227Z,19.00
2018-08-14T00:47:30.992Z,19.00
2018-08-14T00:50:05.929Z,19.00
2018-08-14T00:52:39.772Z,19.00
2018-08-14T00:55:13.490Z,19.00
2018-08-14T00:57:47.309Z,19.00
2018-08-14T01:00:21.768Z,19.00
2018-08-14T01:02:56.405Z,19.10
2018-08-14T01:05:30.893Z,19.00
2018-08-14T01:08:04.662Z,19.00
2018-08-14T01:10:39.209Z,19.00
2018-08-14T01:13:13.749Z,19.00
2018-08-14T01:15:47.377Z,19.00
2018-08-14T01:18:21.968Z,19.00
2018-08-14T01:20:55.807Z,19.00
2018-08-14T01:23:29.639Z,19.00
2018-08-14T01:26:03.523Z,19.00
2018-08-14T01:28:38.170Z,19.00
2018-08-14T01:31:12.725Z,19.00
2018-08-14T01:33:46.500Z,19.00
2018-08-14T01:36:20.351Z,18.90
2018-08-14T01:38:55.755Z,18.80
2018-08-14T01:41:29.536Z,18.80
2018-08-14T01:44:03.439Z,18.80
2018-08-14T01:46:37.244Z,18.80
2018-08-14T01:49:11.842Z,18.90
2018-08-14T01:51:45.624Z,18.90
2018-08-14T01:54:20.291Z,18.90
2018-08-14T01:56:54.081Z,18.90
2018-08-14T01:59:27.933Z,19.00
2018-08-14T02:02:01.887Z,19.00
2018-08-14T02:04:35.812Z,19.00
2018-08-14T02:07:10.459Z,19.00
2018-08-14T02:09:44.128Z,19.00
2018-08-14T02:12:18.812Z,19.00
2018-08-14T02:14:52.582Z,19.00
2018-08-14T02:17:26.281Z,19.00
2018-08-14T02:20:00.904Z,19.10
2018-08-14T02:22:35.493Z,19.10
2018-08-14T02:25:09.388Z,19.10
2018-08-14T02:27:43.263Z,19.10
2018-08-14T02:30:17.115Z,19.00
2018-08-14T02:32:50.952Z,19.00
2018-08-14T02:35:24.816Z,19.00
2018-08-14T02:37:58.517Z,18.90
2018-08-14T02:40:33.056Z,18.90
2018-08-14T02:43:06.960Z,18.80
2018-08-14T02:45:40.815Z,18.80
2018-08-14T02:48:14.584Z,18.80
2018-08-14T02:50:48.470Z,18.80
2018-08-14T02:53:23.160Z,18.70
2018-08-14T02:55:57.807Z,18.60
2018-08-14T02:58:31.735Z,18.60
2018-08-14T03:01:05.527Z,18.60
2018-08-14T03:03:40.126Z,18.40
2018-08-14T03:06:13.916Z,18.40
2018-08-14T03:08:48.553Z,18.40
2018-08-14T03:11:22.341Z,18.30
2018-08-14T03:13:57.666Z,18.30
2018-08-14T03:16:31.398Z,18.30
2018-08-14T03:19:05.108Z,18.20
2018-08-14T03:21:38.949Z,18.20
2018-08-14T03:24:13.517Z,18.10
2018-08-14T03:26:48.111Z,18.10
2018-08-14T03:29:21.821Z,18.10
2018-08-14T03:31:55.627Z,18.10
2018-08-14T03:34:30.188Z,18.00
2018-08-14T03:37:04.814Z,18.00
2018-08-14T03:39:39.377Z,18.00
2018-08-14T03:42:13.855Z,18.10
2018-08-14T03:44:47.618Z,18.00
2018-08-14T03:47:21.379Z,18.00
2018-08-14T03:49:55.277Z,18.00
2018-08-14T03:52:29.035Z,18.00
2018-08-14T03:55:02.732Z,17.90
2018-08-14T03:57:37.321Z,17.90
2018-08-14T04:00:10.979Z,17.90
2018-08-14T04:02:44.857Z,17.90
2018-08-14T04:05:18.676Z,17.90
2018-08-14T04:07:53.207Z,17.90
2018-08-14T04:10:27.003Z,17.80
2018-08-14T04:13:00.772Z,17.90
2018-08-14T04:15:34.618Z,17.80
2018-08-14T04:18:09.221Z,17.70
2018-08-14T04:20:42.906Z,17.70
2018-08-14T04:23:17.525Z,17.70
2018-08-14T04:25:51.299Z,17.70
2018-08-14T04:28:25.851Z,17.80
2018-08-14T04:31:00.496Z,17.80
2018-08-14T04:33:34.187Z,17.80
2018-08-14T04:36:08.909Z,17.90
2018-08-14T04:38:42.595Z,17.80
2018-08-14T04:41:16.342Z,17.90
2018-08-14T04:43:50.970Z,17.90
2018-08-14T04:46:24.796Z,17.80
2018-08-14T04:48:59.375Z,17.90
2018-08-14T04:51:33.281Z,17.80
2018-08-14T04:54:07.040Z,17.90
2018-08-14T04:56:40.856Z,18.00
2018-08-14T04:59:14.640Z,18.00
2018-08-14T05:01:49.344Z,18.10
2018-08-14T05:04:23.131Z,18.10
2018-08-14T05:06:56.951Z,18.10
2018-08-14T05:09:30.748Z,18.20
2018-08-14T05:12:05.380Z,18.20
2018-08-14T05:14:39.105Z,18.20
2018-08-14T05:17:12.907Z,18.20
2018-08-14T05:19:47.087Z,18.30
2018-08-14T05:22:20.833Z,18.30
2018-08-14T05:24:55.421Z,18.40
2018-08-14T05:27:29.214Z,18.40
2018-08-14T05:30:03.056Z,18.50
2018-08-14T05:32:37.557Z,19.30
2018-08-14T05:35:11.464Z,19.40
2018-08-14T05:37:45.220Z,19.70
2018-08-14T05:40:19.097Z,19.80
2018-08-14T05:42:53.677Z,19.90
2018-08-14T05:45:28.232Z,19.50
2018-08-14T05:48:01.902Z,19.50
2018-08-14T05:50:35.635Z,19.20
2018-08-14T05:53:10.309Z,19.00
2018-08-14T05:55:44.993Z,18.90
2018-08-14T05:58:18.648Z,18.90
2018-08-14T06:00:52.564Z,18.80
2018-08-14T06:03:27.144Z,19.00
2018-08-14T06:06:01.027Z,19.00
2018-08-14T06:08:35.427Z,19.00
2018-08-14T06:11:09.286Z,19.00
2018-08-14T06:13:44.590Z,19.20
2018-08-14T06:16:19.168Z,19.20
2018-08-14T06:18:52.785Z,19.20
2018-08-14T06:21:27.456Z,19.40
2018-08-14T06:24:01.660Z,19.40
2018-08-14T06:26:35.566Z,19.40
2018-08-14T06:29:10.122Z,19.70
2018-08-14T06:31:44.695Z,19.80
2018-08-14T06:34:18.565Z,19.80
2018-08-14T06:36:52.404Z,19.80
2018-08-14T06:39:26.315Z,19.80
2018-08-14T06:42:00.820Z,19.80
2018-08-14T06:44:35.403Z,19.90
2018-08-14T06:47:09.919Z,20.10
2018-08-14T06:49:43.783Z,20.10
2018-08-14T06:52:18.358Z,19.90
2018-08-14T06:54:54.442Z,20.00
2018-08-14T06:57:28.120Z,20.00
2018-08-14T07:00:01.864Z,20.10
2018-08-14T07:02:35.761Z,20.20
2018-08-14T07:05:09.589Z,20.30
2018-08-14T07:07:43.602Z,20.50
2018-08-14T07:10:17.577Z,20.60
2018-08-14T07:12:51.254Z,20.60
2018-08-14T07:15:25.800Z,21.10
2018-08-14T07:17:59.586Z,21.00
2018-08-14T07:20:33.331Z,20.90
2018-08-14T07:23:07.917Z,21.10
2018-08-14T07:25:41.671Z,21.10
2018-08-14T07:28:16.289Z,21.20
2018-08-14T07:30:50.851Z,20.90
2018-08-14T07:33:24.616Z,20.90
2018-08-14T07:35:59.165Z,21.10
2018-08-14T07:38:33.822Z,21.10
2018-08-14T07:41:07.590Z,21.10
2018-08-14T07:43:42.140Z,21.10
2018-08-14T07:46:16.040Z,21.10
2018-08-14T07:48:50.690Z,21.40
2018-08-14T07:51:25.268Z,21.70
2018-08-14T07:53:59.115Z,21.70
2018-08-14T07:56:32.923Z,21.60
2018-08-14T07:59:06.829Z,21.80
2018-08-14T08:01:41.423Z,21.90
2018-08-14T08:04:15.315Z,21.90
2018-08-14T08:06:49.258Z,22.00
2018-08-14T08:09:22.980Z,22.20
2018-08-14T08:11:57.671Z,22.50
2018-08-14T08:14:31.368Z,22.40
2018-08-14T08:17:05.202Z,22.50
2018-08-14T08:19:39.783Z,22.50
2018-08-14T08:22:13.698Z,22.40
2018-08-14T08:24:47.583Z,22.60
2018-08-14T08:27:21.448Z,22.90
2018-08-14T08:29:56.055Z,23.20
2018-08-14T08:32:30.603Z,23.10
2018-08-14T08:35:04.998Z,22.80
2018-08-14T08:37:39.765Z,23.30
2018-08-14T08:40:13.571Z,23.30
2018-08-14T08:42:47.458Z,23.60
2018-08-14T08:45:21.184Z,24.20
2018-08-14T08:47:55.813Z,24.10
2018-08-14T08:50:29.590Z,24.10
2018-08-14T08:53:04.140Z,24.60
2018-08-14T08:55:38.846Z,24.80
2018-08-14T08:58:12.574Z,24.80
2018-08-14T09:00:46.289Z,24.60
2018-08-14T09:03:20.901Z,24.10
2018-08-14T09:05:54.833Z,24.10
2018-08-14T09:08:29.520Z,24.60
2018-08-14T09:11:03.333Z,24.60
2018-08-14T09:13:37.940Z,24.80
2018-08-14T09:16:11.785Z,24.80
2018-08-14T09:18:46.520Z,23.90
2018-08-14T09:21:20.569Z,23.80
2018-08-14T09:23:54.443Z,23.40
2018-08-14T09:26:28.166Z,23.80
2018-08-14T09:29:02.789Z,25.50
2018-08-14T09:31:36.633Z,25.50
2018-08-14T09:34:11.271Z,25.30
2018-08-14T09:36:45.877Z,24.20
2018-08-14T09:39:19.780Z,24.10
2018-08-14T09:41:53.506Z,23.80
2018-08-14T09:44:28.171Z,24.30
2018-08-14T09:47:02.793Z,25.20
2018-08-14T09:49:37.427Z,26.60
2018-08-14T09:52:12.692Z,27.70
2018-08-14T09:54:47.347Z,27.70
2018-08-14T09:57:21.928Z,27.90
2018-08-14T09:59:55.724Z,27.90
2018-08-14T10:02:29.648Z,27.60
2018-08-14T10:05:03.489Z,27.50
2018-08-14T10:07:37.220Z,26.80
2018-08-14T10:10:11.805Z,26.50
2018-08-14T10:12:47.187Z,25.50
2018-08-14T10:15:21.068Z,25.50
2018-08-14T10:17:55.528Z,24.60
2018-08-14T10:20:30.027Z,24.60
2018-08-14T10:23:05.701Z,25.10
2018-08-14T10:25:39.908Z,25.10
2018-08-14T10:28:15.781Z,26.30
2018-08-14T10:30:50.291Z,26.60
2018-08-14T10:33:23.984Z,26.60
2018-08-14T10:35:57.754Z,26.40
2018-08-14T10:38:31.509Z,26.10
2018-08-14T10:41:05.316Z,25.50
2018-08-14T10:43:39.131Z,25.70
2018-08-14T10:46:13.081Z,26.50
2018-08-14T10:48:47.636Z,26.40
2018-08-14T10:51:22.323Z,26.50
2018-08-14T10:53:55.995Z,26.50
2018-08-14T10:56:29.936Z,27.10
2018-08-14T10:59:03.676Z,27.50
2018-08-14T11:01:38.319Z,26.70
2018-08-14T11:04:12.842Z,26.60
2018-08-14T11:06:47.420Z,25.90
2018-08-14T11:09:21.915Z,25.80
2018-08-14T11:11:55.804Z,25.70
2018-08-14T11:14:30.613Z,26.30
2018-08-14T11:17:04.311Z,26.30
2018-08-14T11:19:38.085Z,26.10
2018-08-14T11:22:11.958Z,26.20
2018-08-14T11:24:45.893Z,26.30
2018-08-14T11:27:20.431Z,25.40
2018-08-14T11:29:54.927Z,24.80
2018-08-14T11:32:28.909Z,24.80
2018-08-14T11:35:02.599Z,24.80
2018-08-14T11:37:36.380Z,24.80
2018-08-14T11:40:10.484Z,25.30
2018-08-14T11:42:44.331Z,25.50
2018-08-14T11:45:18.216Z,25.60
2018-08-14T11:47:52.028Z,25.80
2018-08-14T11:50:26.675Z,25.50
2018-08-14T11:53:00.455Z,25.40
2018-08-14T11:55:35.083Z,25.50
2018-08-14T11:58:09.029Z,25.50
2018-08-14T12:00:43.660Z,25.40
2018-08-14T12:03:17.644Z,25.30
2018-08-14T12:05:51.646Z,25.50
2018-08-14T12:08:25.570Z,25.70
2018-08-14T12:10:59.456Z,25.60
2018-08-14T12:13:33.222Z,25.40
2018-08-14T12:16:07.092Z,25.50
2018-08-14T12:18:40.852Z,25.80
2018-08-14T12:21:14.743Z,26.00
2018-08-14T12:23:48.595Z,26.20
2018-08-14T12:26:32.811Z,25.80
2018-08-14T12:29:07.361Z,25.80
2018-08-14T12:31:42.013Z,25.80
2018-08-14T12:34:15.808Z,25.80
2018-08-14T12:36:50.453Z,25.60
2018-08-14T12:39:24.991Z,25.40
2018-08-14T12:41:58.787Z,25.40
2018-08-14T12:44:32.587Z,25.30
2018-08-14T12:47:06.440Z,25.30
2018-08-14T12:49:41.235Z,25.30
2018-08-14T12:52:15.060Z,25.30
2018-08-14T12:54:48.972Z,25.30
2018-08-14T12:57:22.830Z,25.50
2018-08-14T12:59:56.633Z,25.30
2018-08-14T13:02:30.385Z,25.20
2018-08-14T13:05:04.161Z,25.20
2018-08-14T13:07:37.998Z,25.20
2018-08-14T13:10:11.933Z,25.50
2018-08-14T13:12:45.778Z,25.50
2018-08-14T13:15:20.381Z,26.00
2018-08-14T13:17:54.051Z,26.00
2018-08-14T13:20:28.015Z,25.70
2018-08-14T13:23:01.799Z,25.70
2018-08-14T13:25:35.658Z,25.90
2018-08-14T13:28:10.204Z,26.00
2018-08-14T13:30:43.999Z,25.90
2018-08-14T13:33:17.733Z,25.70
2018-08-14T13:35:51.552Z,25.70
2018-08-14T13:38:26.208Z,25.50
2018-08-14T13:41:00.053Z,25.50
2018-08-14T13:43:33.911Z,25.70
2018-08-14T13:46:07.757Z,26.10
2018-08-14T13:48:41.547Z,26.20
2018-08-14T13:51:16.081Z,26.20
2018-08-14T13:53:49.955Z,26.10
2018-08-14T13:56:23.635Z,26.20
2018-08-14T13:58:57.508Z,26.20
2018-08-14T14:01:32.056Z,25.80
2018-08-14T14:04:05.965Z,25.80
2018-08-14T14:06:40.814Z,25.70
2018-08-14T14:09:14.917Z,25.70
2018-08-14T14:11:48.749Z,25.40
2018-08-14T14:14:22.708Z,25.30
2018-08-14T14:16:56.597Z,25.20
2018-08-14T14:19:31.322Z,25.30
2018-08-14T14:22:05.221Z,25.30
2018-08-14T14:24:43.131Z,25.50
2018-08-14T14:27:17.538Z,25.70
2018-08-14T14:29:52.680Z,25.80
2018-08-14T14:32:26.436Z,25.50
2018-08-14T14:35:00.627Z,25.30
2018-08-14T14:37:34.286Z,25.40
2018-08-14T14:40:08.068Z,25.40
2018-08-14T14:42:42.642Z,25.60
2018-08-14T14:45:16.743Z,25.60
2018-08-14T14:47:50.716Z,25.60
2018-08-14T14:50:24.487Z,25.80
2018-08-14T14:52:58.320Z,25.90
2018-08-14T14:55:32.845Z,26.20
2018-08-14T14:58:06.853Z,26.20
2018-08-14T15:00:41.461Z,25.80
2018-08-14T15:03:15.984Z,25.90
2018-08-14T15:05:49.992Z,25.90
2018-08-14T15:08:23.993Z,26.00
2018-08-14T15:10:57.788Z,25.90
2018-08-14T15:13:31.490Z,25.80
2018-08-14T15:16:05.417Z,25.60
2018-08-14T15:18:39.091Z,25.50
2018-08-14T15:21:14.635Z,25.90
2018-08-14T15:23:48.272Z,25.90
2018-08-14T15:26:22.057Z,25.60
2018-08-14T15:28:56.648Z,25.80
2018-08-14T15:31:30.627Z,25.90
2018-08-14T15:34:04.514Z,25.80
2018-08-14T15:36:39.494Z,25.80
2018-08-14T15:39:13.713Z,25.70
2018-08-14T15:41:47.466Z,25.70
2018-08-14T15:44:21.175Z,25.90
2018-08-14T15:46:55.010Z,26.00
2018-08-14T15:49:29.023Z,26.10
2018-08-14T15:52:03.685Z,25.90
2018-08-14T15:54:37.592Z,25.90
2018-08-14T15:57:11.325Z,25.80
2018-08-14T15:59:45.150Z,25.70
2018-08-14T16:02:19.248Z,25.40
2018-08-14T16:04:53.262Z,25.20
2018-08-14T16:07:28.386Z,25.00
2018-08-14T16:10:02.374Z,25.00
2018-08-14T16:12:37.226Z,25.00
2018-08-14T16:15:11.037Z,25.00
2018-08-14T16:17:45.721Z,25.20
2018-08-14T16:20:19.696Z,25.20
2018-08-14T16:22:53.408Z,25.40
2018-08-14T16:25:27.150Z,25.30
2018-08-14T16:28:00.902Z,25.30
2018-08-14T16:30:35.429Z,25.00
2018-08-14T16:33:09.310Z,25.10
2018-08-14T16:35:43.199Z,24.90
2018-08-14T16:38:17.767Z,24.80
2018-08-14T16:40:51.628Z,24.80
2018-08-14T16:43:25.562Z,24.60
2018-08-14T16:45:59.373Z,24.50
2018-08-14T16:48:33.363Z,24.30
2018-08-14T16:51:07.212Z,24.30
2018-08-14T16:53:41.003Z,24.40
2018-08-14T16:56:15.613Z,24.30
2018-08-14T16:58:49.395Z,24.30
2018-08-14T17:01:23.156Z,24.40
2018-08-14T17:03:57.896Z,24.40
2018-08-14T17:06:32.009Z,24.40
2018-08-14T17:09:05.812Z,24.30
2018-08-14T17:11:40.611Z,24.40
2018-08-14T17:14:14.542Z,24.40
2018-08-14T17:16:48.448Z,24.20
2018-08-14T17:19:22.247Z,24.20
2018-08-14T17:21:56.898Z,24.00
2018-08-14T17:24:30.603Z,23.90
2018-08-14T17:27:04.359Z,23.80
2018-08-14T17:29:38.244Z,23.70
2018-08-14T17:32:12.024Z,23.50
2018-08-14T17:34:47.340Z,23.20
2018-08-14T17:37:21.928Z,23.20
2018-08-14T17:39:55.796Z,23.20
2018-08-14T17:42:29.460Z,23.20
2018-08-14T17:45:03.421Z,23.20
2018-08-14T17:47:37.184Z,23.20
2018-08-14T17:50:10.993Z,23.20
2018-08-14T17:52:44.800Z,23.20
2018-08-14T17:55:18.628Z,23.20
2018-08-14T17:57:53.559Z,23.20
2018-08-14T18:00:27.315Z,23.20
2018-08-14T18:03:01.964Z,23.10
2018-08-14T18:05:35.788Z,23.10
2018-08-14T18:08:09.763Z,23.00
2018-08-14T18:10:43.652Z,23.00
2018-08-14T18:13:17.570Z,23.00
2018-08-14T18:15:51.252Z,22.90
2018-08-14T18:18:25.181Z,22.90
2018-08-14T18:20:59.605Z,22.90
2018-08-14T18:23:33.446Z,22.90
2018-08-14T18:26:07.363Z,22.90
2018-08-14T18:28:41.102Z,22.90
2018-08-14T18:31:14.840Z,22.90
2018-08-14T18:33:49.460Z,22.90
2018-08-14T18:36:23.345Z,22.90
2018-08-14T18:38:59.030Z,22.80
2018-08-14T18:41:32.734Z,22.80
2018-08-14T18:44:06.481Z,22.80
2018-08-14T18:46:40.250Z,22.80
2018-08-14T18:49:14.440Z,22.80
2018-08-14T18:51:49.142Z,22.80
2018-08-14T18:54:23.200Z,22.80
2018-08-14T18:56:57.120Z,22.80
2018-08-14T18:59:31.163Z,22.80
2018-08-14T19:02:04.941Z,22.80
2018-08-14T19:04:38.745Z,22.80
2018-08-14T19:07:12.692Z,22.80
2018-08-14T19:09:46.437Z,22.80
2018-08-14T19:12:20.857Z,22.80
2018-08-14T19:14:55.631Z,22.80
2018-08-14T19:17:29.448Z,22.80
2018-08-14T19:20:04.706Z,22.80
2018-08-14T19:22:38.672Z,22.80
2018-08-14T19:25:12.467Z,22.70
2018-08-14T19:27:46.263Z,22.70
2018-08-14T19:30:19.893Z,22.70
2018-08-14T19:32:53.906Z,22.60
2018-08-14T19:35:27.699Z,22.50
2018-08-14T19:38:02.416Z,22.50
2018-08-14T19:40:36.240Z,22.50
2018-08-14T19:43:10.229Z,22.50
2018-08-14T19:45:43.931Z,22.50
2018-08-14T19:48:17.771Z,22.50
2018-08-14T19:50:52.368Z,22.50
2018-08-14T19:53:26.915Z,22.60
2018-08-14T19:56:00.784Z,22.50
2018-08-14T19:58:34.888Z,22.50
2018-08-14T20:01:08.733Z,22.50
2018-08-14T20:03:42.540Z,22.50
2018-08-14T20:06:16.351Z,22.40
2018-08-14T20:08:50.072Z,22.40
2018-08-14T20:11:23.873Z,22.40
2018-08-14T20:13:57.783Z,22.30
2018-08-14T20:16:31.445Z,22.20
2018-08-14T20:19:05.191Z,22.20
2018-08-14T20:21:38.948Z,22.20
2018-08-14T20:24:13.562Z,22.10
2018-08-14T20:26:47.289Z,22.10
2018-08-14T20:29:22.706Z,22.10
2018-08-14T20:31:56.580Z,22.10
2018-08-14T20:34:31.185Z,21.90
2018-08-14T20:37:05.760Z,21.90
2018-08-14T20:39:39.585Z,21.90
2018-08-14T20:42:13.407Z,21.90
2018-08-14T20:44:48.043Z,21.80
2018-08-14T20:47:21.681Z,21.80
2018-08-14T20:49:56.355Z,21.80
2018-08-14T20:52:30.216Z,21.80
2018-08-14T20:55:04.870Z,21.80
2018-08-14T20:57:38.697Z,21.80
2018-08-14T21:00:13.305Z,21.60
2018-08-14T21:02:47.120Z,21.70
2018-08-14T21:05:21.736Z,21.60
2018-08-14T21:07:56.395Z,21.50
2018-08-14T21:10:30.971Z,21.50
2018-08-14T21:13:05.540Z,21.50
2018-08-14T21:15:39.348Z,21.50
2018-08-14T21:18:14.056Z,21.40
2018-08-14T21:20:47.776Z,21.40
2018-08-14T21:23:21.719Z,21.40
2018-08-14T21:25:55.447Z,21.30
2018-08-14T21:28:29.897Z,21.20
2018-08-14T21:31:04.566Z,21.20
2018-08-14T21:33:38.239Z,21.20
2018-08-14T21:36:11.940Z,21.10
2018-08-14T21:38:46.442Z,21.10
2018-08-14T21:41:21.108Z,21.00
2018-08-14T21:43:54.983Z,21.00
2018-08-14T21:46:28.748Z,20.90
2018-08-14T21:49:03.336Z,20.80
2018-08-14T21:51:37.252Z,20.80
2018-08-14T21:54:11.718Z,20.80
2018-08-14T21:56:45.616Z,20.80
2018-08-14T21:59:20.047Z,20.80
2018-08-14T22:01:53.950Z,20.70
2018-08-14T22:04:27.699Z,20.70
2018-08-14T22:07:01.413Z,20.60
2018-08-14T22:09:35.989Z,20.50
2018-08-14T22:12:10.673Z,20.40
2018-08-14T22:14:44.715Z,20.40
2018-08-14T22:17:18.471Z,20.30
2018-08-14T22:19:53.118Z,20.20
2018-08-14T22:22:26.904Z,20.20
2018-08-14T22:25:00.674Z,20.20
2018-08-14T22:27:35.335Z,20.10
2018-08-14T22:30:09.952Z,20.10
2018-08-14T22:32:43.786Z,20.10
2018-08-14T22:35:17.559Z,20.10
2018-08-14T22:37:51.323Z,20.00
2018-08-14T22:40:25.172Z,20.00
2018-08-14T22:42:58.960Z,20.00
2018-08-14T22:45:32.665Z,20.00
2018-08-14T22:48:07.127Z,19.90
2018-08-14T22:50:41.616Z,19.90
2018-08-14T22:53:16.350Z,19.80
2018-08-14T22:55:50.197Z,19.80
2018-08-14T22:58:24.030Z,19.80
2018-08-14T23:00:57.887Z,19.70
2018-08-14T23:03:31.687Z,19.70
2018-08-14T23:06:05.505Z,19.70
2018-08-14T23:08:39.487Z,19.70
2018-08-14T23:11:13.373Z,19.70
2018-08-14T23:13:47.272Z,19.70
2018-08-14T23:16:21.841Z,19.70
2018-08-14T23:18:55.775Z,19.70
2018-08-14T23:21:29.708Z,19.70
2018-08-14T23:24:03.639Z,19.80
2018-08-14T23:26:37.442Z,19.80
2018-08-14T23:29:11.980Z,19.80
2018-08-14T23:31:45.763Z,19.70
2018-08-14T23:34:19.654Z,19.80
2018-08-14T23:36:54.305Z,19.80
2018-08-14T23:39:28.171Z,19.70
2018-08-14T23:42:01.755Z,19.70
2018-08-14T23:44:35.651Z,19.70
2018-08-14T23:47:09.436Z,19.70
2018-08-14T23:49:43.280Z,19.70
2018-08-14T23:52:17.127Z,19.70
2018-08-14T23:54:50.912Z,19.60
2018-08-14T23:57:24.547Z,19.60
2018-08-14T23:59:58.970Z,19.60
